Etusivu
METAR-TAF:

METAR-TAF

Lentoasemat :

Charlevoix Municipal Airport

Charlevoix, Michigan, Yhdysvallat

Leveyspiiri: 45-18-17N, Pituuspiiri: 085-16-29W, korkeus merenpinnasta: 204 m

Tämänhetkinen sää

Tämä raportti tehtiin 30 minuuttia sitten, kello 04.56 UTC
Tuuli 5 kn etelästä/kaakosta
Lämpötila 2°C
Kosteus 93%
Ilmanpaine 1007 hPa
Näkyvyys: 4.0 km
Hajanaisia pilviä 100 ft:n korkeudessa
Pilvistä 2600 ft:n korkeudessa
utua

METAR: KCVX 190456Z AUTO 16005KT 2 1/2SM BR SCT001 OVC026 02/01 A2974 RMK AO2 T00220013

Aika: 00:26 (05:26 UTC)


TAF: puuttuu

Säähavainnot ja -ennusteet yli 4000 lentoasemalta (METAR- ja TAF-raportit).

Käytössä olevat sääasemat on merkitty karttaan keltaisilla ja punaisilla pisteillä.

Aseta hiiri pisteen päälle nähdäksesi sääaseman nimen.

Klikkaa sitten nähdäksesi säähavainnot ja -ennusteet.

Kartan vaihtaminen: klikkaa mustalla rastilla varustettuja vihreitä pisteitä, niin voit zoomata sisään; viivalla varustettua vihreää pistettä, niin voit zoomata ulos tai vihreitä nuolia, niin pääset viereisille kartoille.


METAR-TAF: